createdAt,value
2023-02-03T00:00:08.196Z,1.3
2023-02-03T00:01:17.496Z,1.4
2023-02-03T00:02:26.513Z,1.3
2023-02-03T00:03:34.887Z,1.3
2023-02-03T00:04:44.963Z,1.3
2023-02-03T00:05:53.435Z,1.3
2023-02-03T00:07:01.150Z,1.3
2023-02-03T00:08:10.142Z,1.4
2023-02-03T00:09:19.088Z,1.2
2023-02-03T00:10:29.357Z,1.2
2023-02-03T00:11:37.935Z,1.2
2023-02-03T00:12:47.041Z,1.2
2023-02-03T00:13:56.259Z,1.2
2023-02-03T00:15:04.535Z,1.2
2023-02-03T00:16:13.706Z,1.2
2023-02-03T00:17:22.843Z,1.2
2023-02-03T00:18:31.239Z,1.2
2023-02-03T00:19:42.869Z,1.1
2023-02-03T00:20:51.705Z,1.1
2023-02-03T00:22:00.097Z,0.8
2023-02-03T00:23:07.994Z,0.9
2023-02-03T00:24:18.655Z,0.9
2023-02-03T00:25:28.082Z,0.7
2023-02-03T00:26:35.669Z,0.8
2023-02-03T00:27:47.489Z,0.7
2023-02-03T00:28:57.577Z,0.6
2023-02-03T00:30:07.254Z,0.7
2023-02-03T00:31:16.488Z,0.8
2023-02-03T00:32:25.750Z,0.9
2023-02-03T00:33:34.092Z,0.9
2023-02-03T00:34:42.432Z,0.9
2023-02-03T00:35:49.979Z,0.9
2023-02-03T00:36:59.454Z,0.8
2023-02-03T00:38:07.882Z,0.9
2023-02-03T00:39:17.354Z,0.9
2023-02-03T00:40:28.079Z,0.9
2023-02-03T00:41:37.220Z,0.8
2023-02-03T00:42:45.395Z,0.8
2023-02-03T00:43:54.377Z,0.8
2023-02-03T00:45:03.906Z,0.9
2023-02-03T00:46:12.227Z,1
2023-02-03T00:47:21.035Z,0.9
2023-02-03T00:48:29.047Z,1
2023-02-03T00:49:38.526Z,0.9
2023-02-03T00:50:45.808Z,0.9
2023-02-03T00:51:55.831Z,0.8
2023-02-03T00:53:03.258Z,0.8
2023-02-03T00:54:13.183Z,0.9
2023-02-03T00:55:23.094Z,0.8
2023-02-03T00:56:32.146Z,0.5
2023-02-03T00:57:41.969Z,0.7
2023-02-03T00:58:50.452Z,0.9
2023-02-03T00:59:59.991Z,0.8
2023-02-03T01:01:08.527Z,0.9
2023-02-03T01:02:17.772Z,1
2023-02-03T01:03:27.350Z,1.1
2023-02-03T01:04:37.371Z,1
2023-02-03T01:05:45.320Z,0.8
2023-02-03T01:06:53.204Z,0.6
2023-02-03T01:08:02.178Z,0.6
2023-02-03T01:09:10.824Z,0.3
2023-02-03T01:10:19.405Z,0.4
2023-02-03T01:11:28.036Z,0.3
2023-02-03T01:12:37.761Z,0.6
2023-02-03T01:13:47.082Z,0.6
2023-02-03T01:14:56.805Z,0.6
2023-02-03T01:16:05.341Z,0.6
2023-02-03T01:17:16.696Z,0.6
2023-02-03T01:18:26.848Z,0.6
2023-02-03T01:19:35.585Z,0.6
2023-02-03T01:20:45.096Z,0.7
2023-02-03T01:21:53.407Z,0.9
2023-02-03T01:23:03.137Z,0.9
2023-02-03T01:24:11.584Z,0.9
2023-02-03T01:25:19.498Z,0.6
2023-02-03T01:26:28.714Z,0.8
2023-02-03T01:27:38.041Z,0.6
2023-02-03T01:28:46.963Z,0.8
2023-02-03T01:30:01.190Z,0.8
2023-02-03T01:31:11.308Z,0.7
2023-02-03T01:32:19.092Z,0.9
2023-02-03T01:33:27.049Z,0.8
2023-02-03T01:34:34.642Z,0.9
2023-02-03T01:35:44.143Z,1.1
2023-02-03T01:36:52.917Z,1.1
2023-02-03T01:38:00.127Z,1.1
2023-02-03T01:39:09.546Z,0.9
2023-02-03T01:40:18.595Z,0.9
2023-02-03T01:41:27.534Z,0.6
2023-02-03T01:42:35.442Z,0.5
2023-02-03T01:43:42.862Z,0.8
2023-02-03T01:44:54.101Z,0.9
2023-02-03T01:46:03.518Z,0.9
2023-02-03T01:47:12.839Z,0.8
2023-02-03T01:48:27.205Z,0.8
2023-02-03T01:49:40.078Z,0.8
2023-02-03T01:50:51.907Z,0.9
2023-02-03T01:52:01.490Z,0.8
2023-02-03T01:53:10.430Z,0.9
2023-02-03T01:54:18.468Z,0.9
2023-02-03T01:55:32.693Z,0.7
2023-02-03T01:56:40.703Z,0.7
2023-02-03T01:57:49.562Z,0.7
2023-02-03T01:59:01.459Z,0.7
2023-02-03T02:00:09.883Z,0.7
2023-02-03T02:01:19.852Z,0.8
2023-02-03T02:02:27.206Z,0.9
2023-02-03T02:03:34.891Z,0.9
2023-02-03T02:04:44.227Z,1
2023-02-03T02:05:59.175Z,1
2023-02-03T02:07:09.294Z,1
2023-02-03T02:08:16.443Z,1
2023-02-03T02:09:25.181Z,1
2023-02-03T02:10:36.441Z,1
2023-02-03T02:11:45.993Z,0.9
2023-02-03T02:12:57.438Z,0.9
2023-02-03T02:14:05.490Z,0.9
2023-02-03T02:15:14.143Z,0.9
2023-02-03T02:16:23.614Z,0.9
2023-02-03T02:17:40.621Z,0.9
2023-02-03T02:18:59.000Z,0.8
2023-02-03T02:20:15.921Z,0.8
2023-02-03T02:21:30.139Z,0.8
2023-02-03T02:22:45.812Z,0.8
2023-02-03T02:24:02.155Z,0.8
2023-02-03T02:25:19.729Z,0.8
2023-02-03T02:26:34.845Z,0.8
2023-02-03T02:27:48.659Z,0.8
2023-02-03T02:29:01.233Z,0.7
2023-02-03T02:30:13.481Z,0.7
2023-02-03T02:31:24.370Z,0.6
2023-02-03T02:32:43.262Z,0.7
2023-02-03T02:34:03.387Z,0.6
2023-02-03T02:35:14.522Z,0.6
2023-02-03T02:36:24.812Z,0.5
2023-02-03T02:37:38.493Z,0.5
2023-02-03T02:38:53.311Z,0.5
2023-02-03T02:40:07.778Z,0.4
2023-02-03T02:41:21.535Z,0.4
2023-02-03T02:42:39.705Z,0.4
2023-02-03T02:43:54.974Z,0.5
2023-02-03T02:45:06.867Z,0.3
2023-02-03T02:46:14.672Z,0.2
2023-02-03T02:47:23.698Z,0.3
2023-02-03T02:48:32.359Z,0.3
2023-02-03T02:49:41.795Z,0.3
2023-02-03T02:50:55.991Z,0.3
2023-02-03T02:52:05.630Z,0.4
2023-02-03T02:53:14.378Z,0.3
2023-02-03T02:54:23.434Z,0.4
2023-02-03T02:55:32.533Z,0.3
2023-02-03T02:56:40.001Z,0.3
2023-02-03T02:57:50.017Z,0.4
2023-02-03T02:58:58.353Z,0.5
2023-02-03T03:00:06.901Z,0.5
2023-02-03T03:01:15.397Z,0.6
2023-02-03T03:02:23.927Z,0.6
2023-02-03T03:03:37.595Z,0.7
2023-02-03T03:04:46.235Z,0.7
2023-02-03T03:05:55.461Z,0.6
2023-02-03T03:07:05.775Z,0.5
2023-02-03T03:08:18.757Z,0.4
2023-02-03T03:09:27.119Z,0.5
2023-02-03T03:10:34.896Z,0.5
2023-02-03T03:11:43.758Z,0.5
2023-02-03T03:12:54.183Z,0.5
2023-02-03T03:14:03.022Z,0.4
2023-02-03T03:15:11.068Z,0.3
2023-02-03T03:16:20.299Z,0.3
2023-02-03T03:17:29.097Z,0.3
2023-02-03T03:18:39.454Z,0.5
2023-02-03T03:19:47.503Z,0.5
2023-02-03T03:20:56.405Z,0.5
2023-02-03T03:22:04.991Z,0.5
2023-02-03T03:23:14.487Z,0.5
2023-02-03T03:24:27.632Z,0.5
2023-02-03T03:25:37.888Z,0.6
2023-02-03T03:26:46.618Z,0.6
2023-02-03T03:28:00.407Z,0.6
2023-02-03T03:29:10.256Z,0.6
2023-02-03T03:30:30.241Z,0.6
2023-02-03T03:31:37.406Z,0.4
2023-02-03T03:32:50.366Z,0.4
2023-02-03T03:34:02.064Z,0.5
2023-02-03T03:35:10.595Z,0.5
2023-02-03T03:36:18.956Z,0.5
2023-02-03T03:37:29.447Z,0.6
2023-02-03T03:38:39.625Z,0.6
2023-02-03T03:39:50.743Z,0.6
2023-02-03T03:41:02.272Z,0.5
2023-02-03T03:42:10.537Z,0.4
2023-02-03T03:43:24.059Z,0.3
2023-02-03T03:44:34.606Z,0.2
2023-02-03T03:45:43.208Z,0.3
2023-02-03T03:47:00.151Z,0.2
2023-02-03T03:48:11.112Z,0.3
2023-02-03T03:49:21.940Z,0.1
2023-02-03T03:50:30.027Z,0.2
2023-02-03T03:51:43.268Z,0.2
2023-02-03T03:52:53.863Z,0.2
2023-02-03T03:54:03.301Z,0.3
2023-02-03T03:55:13.770Z,0.4
2023-02-03T03:56:23.231Z,0.4
2023-02-03T03:57:33.081Z,0.4
2023-02-03T03:58:48.464Z,0.4
2023-02-03T03:59:57.222Z,0.5
2023-02-03T04:01:08.524Z,0.4
2023-02-03T04:02:19.181Z,0.3
2023-02-03T04:03:27.688Z,0.3
2023-02-03T04:04:35.321Z,0.3
2023-02-03T04:05:42.905Z,0.2
2023-02-03T04:06:52.833Z,0.1
2023-02-03T04:08:00.962Z,0.1
2023-02-03T04:09:09.642Z,0.2
2023-02-03T04:10:18.454Z,0.2
2023-02-03T04:11:33.718Z,0.2
2023-02-03T04:12:47.393Z,0.2
2023-02-03T04:13:56.033Z,0.1
2023-02-03T04:15:03.992Z,0
2023-02-03T04:16:13.273Z,0
2023-02-03T04:17:22.854Z,0.2
2023-02-03T04:18:30.724Z,0.2
2023-02-03T04:19:38.980Z,0
2023-02-03T04:20:48.285Z,0.1
2023-02-03T04:21:56.781Z,0.1
2023-02-03T04:23:04.517Z,0.2
2023-02-03T04:24:12.673Z,0.3
2023-02-03T04:25:20.296Z,0.3
2023-02-03T04:26:27.581Z,-0.1
2023-02-03T04:27:36.131Z,0.1
2023-02-03T04:28:43.796Z,0
2023-02-03T04:29:51.927Z,0.1
2023-02-03T04:30:59.307Z,-0.1
2023-02-03T04:32:07.761Z,-0.1
2023-02-03T04:33:17.440Z,0
2023-02-03T04:34:25.083Z,0.1
2023-02-03T04:35:33.624Z,0.2
2023-02-03T04:36:42.296Z,0.3
2023-02-03T04:37:51.141Z,0.3
2023-02-03T04:39:00.966Z,0.3
2023-02-03T04:40:08.954Z,0.3
2023-02-03T04:41:16.966Z,0.4
2023-02-03T04:42:27.269Z,0.3
2023-02-03T04:43:36.498Z,0.4
2023-02-03T04:44:45.030Z,0.3
2023-02-03T04:45:53.358Z,0.3
2023-02-03T04:47:02.004Z,0.4
2023-02-03T04:48:11.244Z,0.3
2023-02-03T04:49:21.663Z,0.3
2023-02-03T04:50:31.549Z,0.3
2023-02-03T04:51:39.116Z,0.2
2023-02-03T04:52:48.421Z,0.2
2023-02-03T04:53:56.018Z,0.3
2023-02-03T04:55:06.346Z,0.3
2023-02-03T04:56:17.544Z,0.3
2023-02-03T04:57:27.927Z,0.3
2023-02-03T04:58:35.767Z,0.2
2023-02-03T04:59:44.365Z,0.1
2023-02-03T05:00:54.507Z,0.1
2023-02-03T05:02:06.006Z,0.1
2023-02-03T05:03:15.894Z,0
2023-02-03T05:04:24.425Z,0.2
2023-02-03T05:05:32.867Z,0.1
2023-02-03T05:06:42.936Z,0
2023-02-03T05:07:51.403Z,0.1
2023-02-03T05:09:00.790Z,0
2023-02-03T05:10:10.699Z,0
2023-02-03T05:11:17.966Z,0.1
2023-02-03T05:12:27.436Z,-0.1
2023-02-03T05:13:36.662Z,0
2023-02-03T05:14:44.868Z,-0.1
2023-02-03T05:15:53.774Z,-0.1
2023-02-03T05:17:04.115Z,0
2023-02-03T05:18:13.631Z,-0.1
2023-02-03T05:19:21.891Z,-0.2
2023-02-03T05:20:31.191Z,-0.2
2023-02-03T05:21:40.019Z,-0.1
2023-02-03T05:22:49.355Z,-0.1
2023-02-03T05:23:58.558Z,-0.2
2023-02-03T05:25:08.641Z,-0.2
2023-02-03T05:26:16.663Z,0.1
2023-02-03T05:27:27.051Z,0.1
2023-02-03T05:28:35.716Z,0
2023-02-03T05:29:44.984Z,-0.1
2023-02-03T05:30:56.864Z,-0.1
2023-02-03T05:32:07.547Z,0
2023-02-03T05:33:16.282Z,0
2023-02-03T05:34:26.581Z,0
2023-02-03T05:35:34.440Z,0
2023-02-03T05:36:43.219Z,-0.1
2023-02-03T05:37:52.823Z,-0.1
2023-02-03T05:39:02.109Z,-0.2
2023-02-03T05:40:10.936Z,-0.2
2023-02-03T05:41:25.708Z,-0.1
2023-02-03T05:42:39.288Z,-0.1
2023-02-03T05:43:50.371Z,0
2023-02-03T05:44:59.145Z,-0.1
2023-02-03T05:46:10.079Z,-0.2
2023-02-03T05:47:18.436Z,-0.1
2023-02-03T05:48:28.471Z,-0.1
2023-02-03T05:49:42.556Z,-0.2
2023-02-03T05:50:54.093Z,-0.1
2023-02-03T05:52:01.299Z,-0.2
2023-02-03T05:53:08.370Z,-0.2
2023-02-03T05:54:18.455Z,-0.1
2023-02-03T05:55:26.998Z,0
2023-02-03T05:56:36.059Z,-0.1
2023-02-03T05:57:44.748Z,-0.2
2023-02-03T05:58:53.613Z,-0.2
2023-02-03T06:00:02.344Z,-0.2
2023-02-03T06:01:12.822Z,-0.1
2023-02-03T06:02:23.187Z,-0.2
2023-02-03T06:03:32.278Z,-0.2
2023-02-03T06:04:42.679Z,-0.2
2023-02-03T06:05:51.670Z,-0.2
2023-02-03T06:07:03.388Z,-0.2
2023-02-03T06:08:10.985Z,-0.2
2023-02-03T06:09:20.637Z,-0.3
2023-02-03T06:10:29.609Z,-0.2
2023-02-03T06:11:38.862Z,-0.3
2023-02-03T06:12:48.781Z,-0.2
2023-02-03T06:13:58.879Z,-0.2
2023-02-03T06:15:06.312Z,-0.2
2023-02-03T06:16:15.312Z,-0.2
2023-02-03T06:17:23.755Z,-0.2
2023-02-03T06:18:31.996Z,-0.2
2023-02-03T06:19:40.384Z,-0.1
2023-02-03T06:20:48.664Z,-0.2
2023-02-03T06:21:59.448Z,-0.1
2023-02-03T06:23:09.123Z,-0.1
2023-02-03T06:24:18.293Z,-0.3
2023-02-03T06:25:28.470Z,-0.3
2023-02-03T06:26:36.897Z,-0.2
2023-02-03T06:27:46.087Z,-0.1
2023-02-03T06:28:56.334Z,-0.2
2023-02-03T06:30:08.694Z,-0.2
2023-02-03T06:31:17.457Z,0
2023-02-03T06:32:29.434Z,-0.1
2023-02-03T06:33:39.311Z,-0.1
2023-02-03T06:34:47.982Z,-0.1
2023-02-03T06:35:57.486Z,0
2023-02-03T06:37:06.683Z,-0.1
2023-02-03T06:38:17.121Z,-0.3
2023-02-03T06:39:28.157Z,-0.3
2023-02-03T06:40:37.311Z,-0.2
2023-02-03T06:41:47.221Z,-0.2
2023-02-03T06:42:55.903Z,-0.2
2023-02-03T06:44:05.647Z,-0.3
2023-02-03T06:45:16.161Z,-0.3
2023-02-03T06:46:24.950Z,-0.3
2023-02-03T06:47:34.998Z,-0.1
2023-02-03T06:48:47.656Z,-0.1
2023-02-03T06:49:56.932Z,-0.1
2023-02-03T06:51:06.198Z,0
2023-02-03T06:52:16.169Z,-0.1
2023-02-03T06:53:26.386Z,-0.3
2023-02-03T06:54:35.657Z,-0.2
2023-02-03T06:55:45.461Z,-0.2
2023-02-03T06:56:55.544Z,-0.1
2023-02-03T06:58:06.349Z,-0.1
2023-02-03T06:59:16.997Z,-0.2
2023-02-03T07:00:27.165Z,0
2023-02-03T07:01:36.178Z,-0.1
2023-02-03T07:02:45.805Z,-0.2
2023-02-03T07:03:59.181Z,-0.1
2023-02-03T07:05:06.936Z,-0.1
2023-02-03T07:06:15.088Z,0
2023-02-03T07:07:24.931Z,-0.1
2023-02-03T07:08:33.879Z,0
2023-02-03T07:09:44.345Z,0.1
2023-02-03T07:10:56.915Z,0.1
2023-02-03T07:12:07.423Z,0
2023-02-03T07:13:18.021Z,0
2023-02-03T07:14:29.562Z,0.1
2023-02-03T07:15:41.196Z,0.1
2023-02-03T07:16:50.634Z,0.1
2023-02-03T07:18:00.052Z,0
2023-02-03T07:19:11.392Z,0.1
2023-02-03T07:20:20.136Z,0.1
2023-02-03T07:21:28.127Z,0.1
2023-02-03T07:22:37.695Z,0.2
2023-02-03T07:23:47.825Z,0.2
2023-02-03T07:24:58.021Z,0.3
2023-02-03T07:26:09.429Z,0.1
2023-02-03T07:27:20.822Z,0.1
2023-02-03T07:28:30.655Z,0.1
2023-02-03T07:29:41.063Z,0.2
2023-02-03T07:30:51.665Z,0.2
2023-02-03T07:32:01.461Z,0.1
2023-02-03T07:33:11.145Z,0.1
2023-02-03T07:34:20.721Z,0.2
2023-02-03T07:35:30.403Z,0.2
2023-02-03T07:36:40.275Z,0.1
2023-02-03T07:37:52.141Z,0
2023-02-03T07:39:02.515Z,0.1
2023-02-03T07:40:11.595Z,0.1
2023-02-03T07:41:21.255Z,0.2
2023-02-03T07:42:31.064Z,0.2
2023-02-03T07:43:41.130Z,0.1
2023-02-03T07:44:49.949Z,0.1
2023-02-03T07:45:59.706Z,0.1
2023-02-03T07:47:08.641Z,0.1
2023-02-03T07:48:16.822Z,0.2
2023-02-03T07:49:24.831Z,0.2
2023-02-03T07:50:36.762Z,0.3
2023-02-03T07:51:44.928Z,0.3
2023-02-03T07:52:53.501Z,0.3
2023-02-03T07:54:03.570Z,0.3
2023-02-03T07:55:13.709Z,0.2
2023-02-03T07:56:21.955Z,0.2
2023-02-03T07:57:29.942Z,0.3
2023-02-03T07:58:40.029Z,0.2
2023-02-03T07:59:51.433Z,0.2
2023-02-03T08:01:00.399Z,0.3
2023-02-03T08:02:11.406Z,0.3
2023-02-03T08:03:20.819Z,0.2
2023-02-03T08:04:31.092Z,0.3
2023-02-03T08:05:39.939Z,0.3
2023-02-03T08:06:51.512Z,0.4
2023-02-03T08:08:01.153Z,0.4
2023-02-03T08:09:10.008Z,0.3
2023-02-03T08:10:19.286Z,0.4
2023-02-03T08:11:29.441Z,0.3
2023-02-03T08:12:39.114Z,0.2
2023-02-03T08:13:50.679Z,0.3
2023-02-03T08:14:59.829Z,0.3
2023-02-03T08:16:09.837Z,0.2
2023-02-03T08:17:21.655Z,0.1
2023-02-03T08:18:32.590Z,0.1
2023-02-03T08:19:40.502Z,0.1
2023-02-03T08:20:52.228Z,0.2
2023-02-03T08:22:01.069Z,0
2023-02-03T08:23:09.524Z,0
2023-02-03T08:24:18.486Z,0.2
2023-02-03T08:25:28.505Z,0.1
2023-02-03T08:26:39.023Z,-0.1
2023-02-03T08:27:47.733Z,0.1
2023-02-03T08:28:58.781Z,0
2023-02-03T08:30:14.744Z,0
2023-02-03T08:31:24.279Z,0.1
2023-02-03T08:32:37.669Z,0
2023-02-03T08:35:23.772Z,0.1
2023-02-03T08:36:32.566Z,0.2
2023-02-03T08:37:49.906Z,0.2
2023-02-03T08:38:58.857Z,0.1
2023-02-03T08:40:08.282Z,0.1
2023-02-03T08:41:17.957Z,0.3
2023-02-03T08:42:25.924Z,0.3
2023-02-03T08:43:35.056Z,0.4
2023-02-03T08:44:46.168Z,0.3
2023-02-03T08:45:56.945Z,0.4
2023-02-03T08:47:10.104Z,0.4
2023-02-03T08:48:19.031Z,0.4
2023-02-03T08:49:28.792Z,0.3
2023-02-03T08:50:38.774Z,0.3
2023-02-03T08:51:50.059Z,0.4
2023-02-03T08:52:59.281Z,0.6
2023-02-03T08:54:11.031Z,0.5
2023-02-03T08:55:22.662Z,0.4
2023-02-03T08:56:30.744Z,0.3
2023-02-03T08:57:40.375Z,0.4
2023-02-03T08:58:49.598Z,0.3
2023-02-03T08:59:59.722Z,0.4
2023-02-03T09:01:13.252Z,0.3
2023-02-03T09:02:24.659Z,0.4
2023-02-03T09:03:37.228Z,0.4
2023-02-03T09:04:48.469Z,0.5
2023-02-03T09:06:00.497Z,0.6
2023-02-03T09:07:12.672Z,0.5
2023-02-03T09:08:23.722Z,0.5
2023-02-03T09:09:33.871Z,0.4
2023-02-03T09:10:43.867Z,0.4
2023-02-03T09:11:53.008Z,0.4
2023-02-03T09:13:04.016Z,0.3
2023-02-03T09:14:14.801Z,0.5
2023-02-03T09:15:26.380Z,0.5
2023-02-03T09:16:35.460Z,0.4
2023-02-03T09:17:45.052Z,0.5
2023-02-03T09:18:55.263Z,0.3
2023-02-03T09:20:04.872Z,0.5
2023-02-03T09:21:21.019Z,0.4
2023-02-03T09:22:25.278Z,0.6
2023-02-03T09:23:36.358Z,0.5
2023-02-03T09:24:46.032Z,0.5
2023-02-03T09:25:57.591Z,0.7
2023-02-03T09:27:07.604Z,0.7
2023-02-03T09:28:19.187Z,0.7
2023-02-03T09:29:30.069Z,0.8
2023-02-03T09:30:40.518Z,0.6
2023-02-03T09:31:52.593Z,0.7
2023-02-03T09:33:01.840Z,0.8
2023-02-03T09:34:12.530Z,0.6
2023-02-03T09:35:23.490Z,0.6
2023-02-03T09:36:33.014Z,0.8
2023-02-03T09:37:41.895Z,0.7
2023-02-03T09:38:51.885Z,0.8
2023-02-03T09:40:04.540Z,0.8
2023-02-03T09:41:13.576Z,0.8
2023-02-03T09:42:27.324Z,0.8
2023-02-03T09:43:47.489Z,0.8
2023-02-03T09:45:03.125Z,0.7
2023-02-03T09:46:12.754Z,0.7
2023-02-03T09:47:26.276Z,0.7
2023-02-03T09:48:37.372Z,0.8
2023-02-03T09:49:51.713Z,0.8
2023-02-03T09:51:06.297Z,0.9
2023-02-03T09:52:24.078Z,0.7
2023-02-03T09:53:39.999Z,0.7
2023-02-03T09:54:51.539Z,0.8
2023-02-03T09:56:08.253Z,0.9
2023-02-03T09:57:22.834Z,0.8
2023-02-03T09:58:32.182Z,0.9
2023-02-03T09:59:42.854Z,0.9
2023-02-03T10:00:52.463Z,0.9
2023-02-03T10:02:04.153Z,0.9
2023-02-03T10:03:16.909Z,1
2023-02-03T10:04:38.905Z,0.8
2023-02-03T10:05:46.815Z,0.7
2023-02-03T10:07:01.868Z,1
2023-02-03T10:08:18.179Z,0.8
2023-02-03T10:09:31.252Z,0.8
2023-02-03T10:10:49.031Z,0.9
2023-02-03T10:12:10.079Z,1
2023-02-03T10:13:27.259Z,0.8
2023-02-03T10:14:38.399Z,0.8
2023-02-03T10:15:56.546Z,0.9
2023-02-03T10:17:13.936Z,0.8
2023-02-03T10:18:29.485Z,0.7
2023-02-03T10:19:51.532Z,0.7
2023-02-03T10:21:01.775Z,0.8
2023-02-03T10:22:17.439Z,1
2023-02-03T10:23:27.891Z,0.8
2023-02-03T10:24:37.208Z,0.8
2023-02-03T10:25:47.770Z,0.9
2023-02-03T10:26:58.057Z,1
2023-02-03T10:28:06.668Z,0.9
2023-02-03T10:29:26.603Z,1
2023-02-03T10:30:42.339Z,1
2023-02-03T10:31:58.993Z,1
2023-02-03T10:33:07.838Z,0.9
2023-02-03T10:34:18.980Z,1
2023-02-03T10:35:28.834Z,0.9
2023-02-03T10:36:38.987Z,1
2023-02-03T10:38:00.401Z,1
2023-02-03T10:39:11.047Z,1.1
2023-02-03T10:40:25.343Z,1
2023-02-03T10:41:36.670Z,1
2023-02-03T10:42:49.504Z,0.9
2023-02-03T10:44:05.562Z,0.9
2023-02-03T10:45:15.258Z,0.9
2023-02-03T10:46:25.950Z,1
2023-02-03T10:47:36.210Z,1
2023-02-03T10:48:46.147Z,1
2023-02-03T10:49:56.192Z,1.1
2023-02-03T10:51:06.865Z,1.1
2023-02-03T10:52:20.855Z,1.1
2023-02-03T10:53:33.036Z,1.2
2023-02-03T10:54:41.851Z,1
2023-02-03T10:55:51.235Z,1
2023-02-03T10:57:07.912Z,1.1
2023-02-03T10:58:18.660Z,1
2023-02-03T10:59:32.481Z,1.1
2023-02-03T11:00:42.838Z,0.9
2023-02-03T11:01:59.266Z,0.8
2023-02-03T11:03:12.887Z,0.9
2023-02-03T11:04:30.865Z,0.9
2023-02-03T11:05:42.014Z,0.8
2023-02-03T11:06:51.443Z,0.8
2023-02-03T11:08:04.072Z,0.8
2023-02-03T11:09:22.162Z,0.9
2023-02-03T11:10:33.764Z,0.9
2023-02-03T11:11:44.963Z,0.8
2023-02-03T11:12:55.604Z,0.9
2023-02-03T11:14:15.326Z,0.9
2023-02-03T11:15:24.908Z,0.9
2023-02-03T11:16:34.554Z,0.9
2023-02-03T11:17:45.049Z,0.9
2023-02-03T11:18:53.490Z,0.8
2023-02-03T11:20:13.847Z,0.8
2023-02-03T11:21:22.652Z,0.9
2023-02-03T11:22:39.711Z,1
2023-02-03T11:23:51.106Z,1
2023-02-03T11:25:08.441Z,0.9
2023-02-03T11:26:27.951Z,0.9
2023-02-03T11:27:38.812Z,0.8
2023-02-03T11:28:48.247Z,0.8
2023-02-03T11:29:58.365Z,0.9
2023-02-03T11:31:14.466Z,1
2023-02-03T11:32:26.141Z,0.9
2023-02-03T11:33:42.643Z,1
2023-02-03T11:34:53.251Z,0.9
2023-02-03T11:36:03.206Z,0.9
2023-02-03T11:37:15.014Z,1
2023-02-03T11:38:37.033Z,1
2023-02-03T11:39:47.537Z,1
2023-02-03T11:40:58.563Z,1
2023-02-03T11:42:09.510Z,1
2023-02-03T11:43:25.222Z,1
2023-02-03T11:44:36.464Z,1
2023-02-03T11:45:47.647Z,1.1
2023-02-03T11:46:58.917Z,1.1
2023-02-03T11:48:16.349Z,1
2023-02-03T11:49:34.384Z,1
2023-02-03T11:50:53.810Z,1.1
2023-02-03T11:52:07.793Z,1.1
2023-02-03T11:53:30.486Z,1.1
2023-02-03T11:54:50.745Z,1
2023-02-03T11:56:15.117Z,1.2
2023-02-03T11:57:32.419Z,1.1
2023-02-03T11:58:52.929Z,1.1
2023-02-03T12:00:07.468Z,1.1
2023-02-03T12:01:22.146Z,1.2
2023-02-03T12:02:43.036Z,1.2
2023-02-03T12:03:58.330Z,1.2
2023-02-03T12:05:09.123Z,1.3
2023-02-03T12:06:25.909Z,1.2
2023-02-03T12:07:38.086Z,1.2
2023-02-03T12:08:57.617Z,1.1
2023-02-03T12:10:12.796Z,1.2
2023-02-03T12:11:35.417Z,1.1
2023-02-03T12:12:50.797Z,1.1
2023-02-03T12:14:07.086Z,1.2
2023-02-03T12:15:20.707Z,1.2
2023-02-03T12:16:36.629Z,1.3
2023-02-03T12:17:51.280Z,1.2
2023-02-03T12:19:05.488Z,1.4
2023-02-03T12:20:21.552Z,1.3
2023-02-03T12:21:40.278Z,1.2
2023-02-03T12:22:53.138Z,1.2
2023-02-03T12:24:12.944Z,1.2
2023-02-03T12:25:28.881Z,1.3
2023-02-03T12:26:46.079Z,1.2
2023-02-03T12:28:05.853Z,1.3
2023-02-03T12:29:15.163Z,1.2
2023-02-03T12:30:33.503Z,1.3
2023-02-03T12:31:46.893Z,1.2
2023-02-03T12:33:05.496Z,1.3
2023-02-03T12:34:15.987Z,1.2
2023-02-03T12:35:31.953Z,1.3
2023-02-03T12:36:43.303Z,1.3
2023-02-03T12:38:03.093Z,1.2
2023-02-03T12:39:20.918Z,1.2
2023-02-03T12:40:33.524Z,1.2
2023-02-03T12:41:47.376Z,1.2
2023-02-03T12:42:55.118Z,1.3
2023-02-03T12:44:05.767Z,1.2
2023-02-03T12:45:14.495Z,1.4
2023-02-03T12:46:22.823Z,1.3
2023-02-03T12:47:37.759Z,1.3
2023-02-03T12:48:53.295Z,1.3
2023-02-03T12:50:06.343Z,1.3
2023-02-03T12:51:23.408Z,1.2
2023-02-03T12:52:38.984Z,1.3
2023-02-03T12:53:50.397Z,1.2
2023-02-03T12:54:59.305Z,1.3
2023-02-03T12:56:18.884Z,1.2
2023-02-03T12:57:31.292Z,1.2
2023-02-03T12:58:46.019Z,1.2
2023-02-03T12:59:59.798Z,1.2
2023-02-03T13:01:15.688Z,1.2
2023-02-03T13:02:25.043Z,1.1
2023-02-03T13:03:35.268Z,1.1
2023-02-03T13:04:44.132Z,1.1
2023-02-03T13:05:55.881Z,1
2023-02-03T13:07:11.099Z,1.1
2023-02-03T13:08:32.392Z,1.1
2023-02-03T13:09:47.471Z,1
2023-02-03T13:11:06.389Z,1.1
2023-02-03T13:12:20.067Z,1.1
2023-02-03T13:13:30.684Z,1.1
2023-02-03T13:14:45.722Z,1
2023-02-03T13:15:58.257Z,1.1
2023-02-03T13:17:09.152Z,1
2023-02-03T13:18:21.932Z,1
2023-02-03T13:19:33.189Z,1
2023-02-03T13:20:42.590Z,1
2023-02-03T13:21:52.470Z,1
2023-02-03T13:23:01.043Z,1
2023-02-03T13:24:10.087Z,1
2023-02-03T13:25:20.304Z,1
2023-02-03T13:26:38.386Z,0.9
2023-02-03T13:27:46.764Z,1
2023-02-03T13:29:07.202Z,1
2023-02-03T13:30:19.452Z,1
2023-02-03T13:31:32.719Z,1
2023-02-03T13:32:52.411Z,1
2023-02-03T13:34:06.513Z,1
2023-02-03T13:35:33.687Z,1.1
2023-02-03T13:36:48.470Z,1
2023-02-03T13:38:04.514Z,1.1
2023-02-03T13:39:22.049Z,1.1
2023-02-03T13:40:42.146Z,1.1
2023-02-03T13:41:55.469Z,1.1
2023-02-03T13:43:16.246Z,1.2
2023-02-03T13:44:25.143Z,1
2023-02-03T13:45:33.680Z,1
2023-02-03T13:46:43.248Z,0.9
2023-02-03T13:47:55.064Z,0.9
2023-02-03T13:49:12.865Z,1
2023-02-03T13:50:27.852Z,0.9
2023-02-03T13:51:36.125Z,1
2023-02-03T13:52:47.445Z,1
2023-02-03T13:54:05.874Z,1.1
2023-02-03T13:55:19.378Z,1
2023-02-03T13:56:33.984Z,0.9
2023-02-03T13:57:44.403Z,1
2023-02-03T13:58:53.667Z,0.9
2023-02-03T14:00:11.058Z,1
2023-02-03T14:01:27.214Z,0.9
2023-02-03T14:02:37.499Z,0.9
2023-02-03T14:03:48.310Z,1
2023-02-03T14:04:56.246Z,1
2023-02-03T14:06:04.312Z,1
2023-02-03T14:07:14.255Z,0.9
2023-02-03T14:08:35.074Z,0.9
2023-02-03T14:09:44.684Z,1
2023-02-03T14:10:53.991Z,1
2023-02-03T14:12:12.060Z,1.1
2023-02-03T14:13:21.301Z,1.1
2023-02-03T14:14:29.822Z,1
2023-02-03T14:15:39.512Z,1
2023-02-03T14:16:49.177Z,1
2023-02-03T14:17:58.573Z,1
2023-02-03T14:19:11.136Z,1.1
2023-02-03T14:20:27.364Z,1.1
2023-02-03T14:21:43.624Z,1.1
2023-02-03T14:22:56.191Z,1.1
2023-02-03T14:24:09.815Z,1.1
2023-02-03T14:25:19.148Z,1.1
2023-02-03T14:26:28.641Z,1.1
2023-02-03T14:27:39.404Z,1.2
2023-02-03T14:28:48.337Z,1.2
2023-02-03T14:29:56.645Z,1.2
2023-02-03T14:31:13.105Z,1.3
2023-02-03T14:32:25.441Z,1.3
2023-02-03T14:33:38.777Z,1.3
2023-02-03T14:34:52.727Z,1.5
2023-02-03T14:36:03.541Z,1.3
2023-02-03T14:37:13.567Z,1.3
2023-02-03T14:38:23.385Z,1.3
2023-02-03T14:39:32.015Z,1.4
2023-02-03T14:40:44.947Z,1.4
2023-02-03T14:41:59.329Z,1.4
2023-02-03T14:43:17.903Z,1.4
2023-02-03T14:44:36.180Z,1.4
2023-02-03T14:45:51.799Z,1.5
2023-02-03T14:47:06.840Z,1.5
2023-02-03T14:48:19.295Z,1.6
2023-02-03T14:49:35.293Z,1.6
2023-02-03T14:50:48.365Z,1.6
2023-02-03T14:52:04.055Z,1.6
2023-02-03T14:53:19.742Z,1.7
2023-02-03T14:54:37.417Z,1.7
2023-02-03T14:55:45.965Z,1.7
2023-02-03T14:56:57.967Z,1.7
2023-02-03T14:58:19.269Z,1.7
2023-02-03T14:59:35.630Z,1.7
2023-02-03T15:00:49.438Z,1.7
2023-02-03T15:01:58.113Z,1.7
2023-02-03T15:03:10.484Z,1.8
2023-02-03T15:04:19.803Z,1.7
2023-02-03T15:05:28.203Z,1.9
2023-02-03T15:06:36.037Z,2
2023-02-03T15:07:50.457Z,2.1
2023-02-03T15:08:58.942Z,2.1
2023-02-03T15:10:06.094Z,2.1
2023-02-03T15:11:22.153Z,2.1
2023-02-03T15:12:30.146Z,2.3
2023-02-03T15:13:38.246Z,2.3
2023-02-03T15:14:48.152Z,2.4
2023-02-03T15:15:56.968Z,2.3
2023-02-03T15:17:07.262Z,2.2
2023-02-03T15:18:20.670Z,2.1
2023-02-03T15:19:36.376Z,2.2
2023-02-03T15:20:45.299Z,2.2
2023-02-03T15:21:55.513Z,2.3
2023-02-03T15:23:05.237Z,2.3
2023-02-03T15:24:24.984Z,2.3
2023-02-03T15:25:33.774Z,2.3
2023-02-03T15:26:41.401Z,2.3
2023-02-03T15:27:49.574Z,2.4
2023-02-03T15:28:58.117Z,2.4
2023-02-03T15:30:07.196Z,2.5
2023-02-03T15:31:22.444Z,2.8
2023-02-03T15:32:39.092Z,2.9
2023-02-03T15:33:51.785Z,3
2023-02-03T15:35:00.149Z,2.9
2023-02-03T15:36:09.349Z,3
2023-02-03T15:37:18.355Z,2.9
2023-02-03T15:38:26.643Z,3
2023-02-03T15:39:36.591Z,3
2023-02-03T15:40:49.346Z,3
2023-02-03T15:42:00.237Z,3.1
2023-02-03T15:43:09.537Z,3.1
2023-02-03T15:44:21.990Z,3.1
2023-02-03T15:45:37.395Z,3.1
2023-02-03T15:46:52.055Z,3.2
2023-02-03T15:48:00.573Z,3.3
2023-02-03T15:49:10.679Z,3.3
2023-02-03T15:50:20.242Z,3.3
2023-02-03T15:51:33.961Z,3.3
2023-02-03T15:52:46.127Z,3.4
2023-02-03T15:53:55.373Z,3.4
2023-02-03T15:55:03.967Z,3.3
2023-02-03T15:56:18.611Z,3.4
2023-02-03T15:57:31.181Z,3.3
2023-02-03T15:58:40.899Z,3.4
2023-02-03T15:59:49.200Z,3.4
2023-02-03T16:00:58.841Z,3.4
2023-02-03T16:02:10.972Z,3.4
2023-02-03T16:03:28.846Z,3.4
2023-02-03T16:04:41.908Z,3.3
2023-02-03T16:05:52.447Z,3.3
2023-02-03T16:07:00.532Z,3.4
2023-02-03T16:08:09.265Z,3.5
2023-02-03T16:09:29.601Z,3.4
2023-02-03T16:10:37.947Z,3.3
2023-02-03T16:11:47.322Z,3.4
2023-02-03T16:12:55.177Z,3.4
2023-02-03T16:14:13.704Z,3.4
2023-02-03T16:15:20.944Z,3.4
2023-02-03T16:16:30.238Z,3.4
2023-02-03T16:17:42.618Z,3.4
2023-02-03T16:18:50.440Z,3.4
2023-02-03T16:20:08.149Z,3.4
2023-02-03T16:21:17.523Z,3.4
2023-02-03T16:22:35.258Z,3.3
2023-02-03T16:23:49.635Z,3.4
2023-02-03T16:24:57.961Z,3.4
2023-02-03T16:26:17.992Z,3.4
2023-02-03T16:27:32.873Z,3.3
2023-02-03T16:28:42.112Z,3.3